createdAt,value
2023-03-03T00:00:59.646Z,89.70
2023-03-03T00:03:29.749Z,89.80
2023-03-03T00:05:57.214Z,89.70
2023-03-03T00:08:25.472Z,89.80
2023-03-03T00:10:52.939Z,89.80
2023-03-03T00:13:22.715Z,89.90
2023-03-03T00:15:51.585Z,89.90
2023-03-03T00:18:22.606Z,89.90
2023-03-03T00:20:54.330Z,89.80
2023-03-03T00:23:30.261Z,89.50
2023-03-03T00:25:57.803Z,90.20
2023-03-03T00:28:31.632Z,90.40
2023-03-03T00:31:00.864Z,90.00
2023-03-03T00:33:32.550Z,89.90
2023-03-03T00:36:16.415Z,89.80
2023-03-03T00:38:43.754Z,89.70
2023-03-03T00:41:23.989Z,89.70
2023-03-03T00:43:52.411Z,89.60
2023-03-03T00:46:22.587Z,89.40
2023-03-03T00:48:51.371Z,90.00
2023-03-03T00:51:31.289Z,90.70
2023-03-03T00:53:59.530Z,90.40
2023-03-03T00:56:27.838Z,90.00
2023-03-03T00:58:55.192Z,89.80
2023-03-03T01:01:25.420Z,89.90
2023-03-03T01:03:54.164Z,90.00
2023-03-03T01:06:21.769Z,89.90
2023-03-03T01:08:48.986Z,89.80
2023-03-03T01:11:23.033Z,89.70
2023-03-03T01:13:51.886Z,89.80
2023-03-03T01:16:19.317Z,89.90
2023-03-03T01:18:46.604Z,90.00
2023-03-03T01:21:13.877Z,90.10
2023-03-03T01:23:41.145Z,90.20
2023-03-03T01:26:08.976Z,90.20
2023-03-03T01:28:36.152Z,90.40
2023-03-03T01:31:05.556Z,90.40
2023-03-03T01:33:34.201Z,90.40
2023-03-03T01:36:01.758Z,90.50
2023-03-03T01:38:29.208Z,90.50
2023-03-03T01:40:58.286Z,90.50
2023-03-03T01:43:31.124Z,90.50
2023-03-03T01:45:58.320Z,90.30
2023-03-03T01:48:42.154Z,90.00
2023-03-03T01:51:30.790Z,90.10
2023-03-03T01:54:03.503Z,90.10
2023-03-03T01:56:30.949Z,90.20
2023-03-03T01:59:06.372Z,90.30
2023-03-03T02:01:34.313Z,90.30
2023-03-03T02:04:02.389Z,90.40
2023-03-03T02:06:44.546Z,90.40
2023-03-03T02:09:27.780Z,90.40
2023-03-03T02:11:59.673Z,90.30
2023-03-03T02:14:26.952Z,90.20
2023-03-03T02:16:54.230Z,90.40
2023-03-03T02:19:39.715Z,90.50
2023-03-03T02:22:07.319Z,90.60
2023-03-03T02:24:53.745Z,90.50
2023-03-03T02:27:21.385Z,90.40
2023-03-03T02:29:48.620Z,90.30
2023-03-03T02:32:15.942Z,90.40
2023-03-03T02:34:53.035Z,90.30
2023-03-03T02:37:20.699Z,90.40
2023-03-03T02:39:47.945Z,90.40
2023-03-03T02:42:23.448Z,90.40
2023-03-03T02:44:54.705Z,90.30
2023-03-03T02:47:21.944Z,90.20
2023-03-03T02:49:49.245Z,90.30
2023-03-03T02:52:18.630Z,90.50
2023-03-03T02:54:47.532Z,90.50
2023-03-03T02:57:14.934Z,90.30
2023-03-03T02:59:42.182Z,90.10
2023-03-03T03:02:13.572Z,89.70
2023-03-03T03:04:41.517Z,89.70
2023-03-03T03:07:11.728Z,89.60
2023-03-03T03:09:38.977Z,89.60
2023-03-03T03:12:06.347Z,89.50
2023-03-03T03:14:35.696Z,89.60
2023-03-03T03:17:02.971Z,89.50
2023-03-03T03:19:30.266Z,89.60
2023-03-03T03:22:01.052Z,89.50
2023-03-03T03:24:29.443Z,89.50
2023-03-03T03:27:02.379Z,89.60
2023-03-03T03:29:29.648Z,89.50
2023-03-03T03:31:56.948Z,89.50
2023-03-03T03:34:24.230Z,89.40
2023-03-03T03:36:52.610Z,89.30
2023-03-03T03:39:21.782Z,89.20
2023-03-03T03:41:50.867Z,89.20
2023-03-03T03:44:18.115Z,89.10
2023-03-03T03:46:45.400Z,89.10
2023-03-03T03:49:12.589Z,89.00
2023-03-03T03:51:41.920Z,89.00
2023-03-03T03:54:12.392Z,88.90
2023-03-03T03:56:40.526Z,88.80
2023-03-03T03:59:08.350Z,88.70
2023-03-03T04:01:36.688Z,88.70
2023-03-03T04:04:05.029Z,88.60
2023-03-03T04:06:32.388Z,88.60
2023-03-03T04:09:06.388Z,88.60
2023-03-03T04:11:35.310Z,88.50
2023-03-03T04:14:04.994Z,88.60
2023-03-03T04:16:32.716Z,88.60
2023-03-03T04:19:04.409Z,88.60
2023-03-03T04:21:33.767Z,88.50
2023-03-03T04:24:02.563Z,88.40
2023-03-03T04:26:31.626Z,88.80
2023-03-03T04:29:01.114Z,89.00
2023-03-03T04:31:29.434Z,89.00
2023-03-03T04:33:56.856Z,89.10
2023-03-03T04:36:24.812Z,89.00
2023-03-03T04:38:52.449Z,88.90
2023-03-03T04:41:20.495Z,88.90
2023-03-03T04:43:47.942Z,88.80
2023-03-03T04:46:15.276Z,88.60
2023-03-03T04:48:43.196Z,88.60
2023-03-03T04:51:11.391Z,88.50
2023-03-03T04:53:39.247Z,88.50
2023-03-03T04:56:08.837Z,88.40
2023-03-03T04:58:37.128Z,88.50
2023-03-03T05:01:04.633Z,88.50
2023-03-03T05:03:32.996Z,88.40
2023-03-03T05:06:00.461Z,88.30
2023-03-03T05:08:27.715Z,88.40
2023-03-03T05:11:00.919Z,88.40
2023-03-03T05:13:28.734Z,88.30
2023-03-03T05:15:56.784Z,88.30
2023-03-03T05:18:25.489Z,88.40
2023-03-03T05:20:54.330Z,88.40
2023-03-03T05:23:22.771Z,88.40
2023-03-03T05:25:50.773Z,88.40
2023-03-03T05:28:23.397Z,88.50
2023-03-03T05:30:53.234Z,88.20
2023-03-03T05:33:21.418Z,88.30
2023-03-03T05:35:54.156Z,88.30
2023-03-03T05:38:22.855Z,88.40
2023-03-03T05:40:51.200Z,88.30
2023-03-03T05:43:18.548Z,88.20
2023-03-03T05:45:45.915Z,88.20
2023-03-03T05:48:14.247Z,88.40
2023-03-03T05:50:42.900Z,88.30
2023-03-03T05:53:10.757Z,88.50
2023-03-03T05:55:38.004Z,88.70
2023-03-03T05:58:05.290Z,88.80
2023-03-03T06:00:34.680Z,88.60
2023-03-03T06:03:03.456Z,88.40
2023-03-03T06:05:30.991Z,88.40
2023-03-03T06:07:58.520Z,88.30
2023-03-03T06:10:26.446Z,88.20
2023-03-03T06:12:56.957Z,88.10
2023-03-03T06:15:25.059Z,88.00
2023-03-03T06:17:53.728Z,88.00
2023-03-03T06:20:21.298Z,88.00
2023-03-03T06:22:48.663Z,88.00
2023-03-03T06:25:16.115Z,88.00
2023-03-03T06:28:08.538Z,88.10
2023-03-03T06:30:36.362Z,88.00
2023-03-03T06:33:03.886Z,88.10
2023-03-03T06:35:31.323Z,88.10
2023-03-03T06:37:58.676Z,88.10
2023-03-03T06:40:26.031Z,88.20
2023-03-03T06:42:53.523Z,88.20
2023-03-03T06:45:20.852Z,88.10
2023-03-03T06:47:48.161Z,87.90
2023-03-03T06:50:20.113Z,87.90
2023-03-03T06:52:47.502Z,87.70
2023-03-03T06:55:21.960Z,87.60
2023-03-03T06:57:49.455Z,87.90
2023-03-03T07:00:24.799Z,87.90
2023-03-03T07:03:08.585Z,87.70
2023-03-03T07:05:35.966Z,87.60
2023-03-03T07:08:12.912Z,87.50
2023-03-03T07:10:40.257Z,87.20
2023-03-03T07:13:23.217Z,87.30
2023-03-03T07:15:53.217Z,87.50
2023-03-03T07:18:39.743Z,87.50
2023-03-03T07:21:21.061Z,87.30
2023-03-03T07:23:53.654Z,87.10
2023-03-03T07:26:28.835Z,87.20
2023-03-03T07:29:21.272Z,87.10
2023-03-03T07:31:49.985Z,87.10
2023-03-03T07:34:22.357Z,86.90
2023-03-03T07:36:59.612Z,86.90
2023-03-03T07:39:40.535Z,86.80
2023-03-03T07:42:16.972Z,86.90
2023-03-03T07:44:52.230Z,87.00
2023-03-03T07:47:28.293Z,86.80
2023-03-03T07:50:08.019Z,86.60
2023-03-03T07:52:48.960Z,86.60
2023-03-03T07:55:31.320Z,86.60
2023-03-03T07:58:16.465Z,86.30
2023-03-03T08:01:02.345Z,86.00
2023-03-03T08:03:29.897Z,86.40
2023-03-03T08:05:57.671Z,86.20
2023-03-03T08:08:31.460Z,86.30
2023-03-03T08:11:00.414Z,85.60
2023-03-03T08:13:43.162Z,85.80
2023-03-03T08:16:12.377Z,85.80
2023-03-03T08:18:47.694Z,85.80
2023-03-03T08:21:15.596Z,85.60
2023-03-03T08:23:43.020Z,85.70
2023-03-03T08:26:12.627Z,85.80
2023-03-03T08:28:39.975Z,85.90
2023-03-03T08:31:18.440Z,85.50
2023-03-03T08:33:52.411Z,85.50
2023-03-03T08:36:19.675Z,85.60
2023-03-03T08:38:47.041Z,85.70
2023-03-03T08:41:14.454Z,85.70
2023-03-03T08:43:41.706Z,85.10
2023-03-03T08:46:10.328Z,85.50
2023-03-03T08:48:37.984Z,85.50
2023-03-03T08:51:05.935Z,85.80
2023-03-03T08:53:36.478Z,85.80
2023-03-03T08:56:05.630Z,85.60
2023-03-03T08:58:35.793Z,85.50
2023-03-03T09:01:03.729Z,85.50
2023-03-03T09:03:31.225Z,85.40
2023-03-03T09:05:58.601Z,85.00
2023-03-03T09:08:25.884Z,85.30
2023-03-03T09:10:53.159Z,84.40
2023-03-03T09:13:20.652Z,85.10
2023-03-03T09:15:49.200Z,85.10
2023-03-03T09:18:32.334Z,85.20
2023-03-03T09:20:59.735Z,85.20
2023-03-03T09:23:31.469Z,84.80
2023-03-03T09:26:32.611Z,84.50
2023-03-03T09:29:05.050Z,84.20
2023-03-03T09:31:41.911Z,84.40
2023-03-03T09:34:28.478Z,84.60
2023-03-03T09:36:56.223Z,84.00
2023-03-03T09:39:26.888Z,83.50
2023-03-03T09:42:02.359Z,83.50
2023-03-03T09:45:00.945Z,84.00
2023-03-03T09:47:36.976Z,83.40
2023-03-03T09:50:38.244Z,83.80
2023-03-03T09:53:21.596Z,83.80
2023-03-03T09:56:03.220Z,84.30
2023-03-03T09:58:46.961Z,84.10
2023-03-03T10:01:35.459Z,84.60
2023-03-03T10:04:09.807Z,84.30
2023-03-03T10:07:12.556Z,83.70
2023-03-03T10:09:50.452Z,83.70
2023-03-03T10:12:33.340Z,83.60
2023-03-03T10:15:12.766Z,83.30
2023-03-03T10:17:45.548Z,82.70
2023-03-03T10:20:29.509Z,82.40
2023-03-03T10:23:21.177Z,82.60
2023-03-03T10:26:12.397Z,82.30
2023-03-03T10:28:58.851Z,82.30
2023-03-03T10:31:45.322Z,81.90
2023-03-03T10:34:43.794Z,82.70
2023-03-03T10:37:29.295Z,82.30
2023-03-03T10:40:33.019Z,83.10
2023-03-03T10:43:32.531Z,83.10
2023-03-03T10:46:10.379Z,83.90
2023-03-03T10:48:55.695Z,83.50
2023-03-03T10:51:31.392Z,83.10
2023-03-03T10:54:17.681Z,82.70
2023-03-03T10:56:52.784Z,83.00
2023-03-03T10:59:37.858Z,82.80
2023-03-03T11:02:41.706Z,82.40
2023-03-03T11:05:17.840Z,82.20
2023-03-03T11:07:57.920Z,82.10
2023-03-03T11:10:33.367Z,81.70
2023-03-03T11:13:15.122Z,82.40
2023-03-03T11:16:14.838Z,81.00
2023-03-03T11:19:15.643Z,81.50
2023-03-03T11:22:17.236Z,82.00
2023-03-03T11:25:21.297Z,82.40
2023-03-03T11:28:04.240Z,82.20
2023-03-03T11:30:54.512Z,81.80
2023-03-03T11:33:39.908Z,80.70
2023-03-03T11:36:21.145Z,80.20
2023-03-03T11:38:59.308Z,80.00
2023-03-03T11:41:37.693Z,79.80
2023-03-03T11:44:10.246Z,79.40
2023-03-03T11:46:46.712Z,78.70
2023-03-03T11:49:43.417Z,79.40
2023-03-03T11:52:41.197Z,79.40
2023-03-03T11:55:33.150Z,79.10
2023-03-03T11:58:34.396Z,79.10
2023-03-03T12:01:16.966Z,79.00
2023-03-03T12:04:09.293Z,79.90
2023-03-03T12:07:17.889Z,80.40
2023-03-03T12:10:13.812Z,80.20
2023-03-03T12:13:05.255Z,80.10
2023-03-03T12:15:48.715Z,78.80
2023-03-03T12:18:51.389Z,78.70
2023-03-03T12:21:48.042Z,78.10
2023-03-03T12:24:41.423Z,78.80
2023-03-03T12:27:25.547Z,78.60
2023-03-03T12:30:20.838Z,78.10
2023-03-03T12:33:02.179Z,78.20
2023-03-03T12:35:59.529Z,77.50
2023-03-03T12:38:57.602Z,75.80
2023-03-03T12:41:37.264Z,74.60
2023-03-03T12:44:16.508Z,74.20
2023-03-03T12:46:59.757Z,76.00
2023-03-03T12:49:48.076Z,76.00
2023-03-03T12:52:50.491Z,75.70
2023-03-03T12:55:27.899Z,74.40
2023-03-03T12:58:13.359Z,73.50
2023-03-03T13:00:58.060Z,73.40
2023-03-03T13:04:05.201Z,72.50
2023-03-03T13:06:43.026Z,72.70
2023-03-03T13:09:25.743Z,72.70
2023-03-03T13:12:16.521Z,74.10
2023-03-03T13:15:01.881Z,73.20
2023-03-03T13:17:54.229Z,73.20
2023-03-03T13:20:36.264Z,73.30
2023-03-03T13:23:32.029Z,74.20
2023-03-03T13:26:11.683Z,75.30
2023-03-03T13:28:57.977Z,75.70
2023-03-03T13:31:32.952Z,75.80
2023-03-03T13:34:02.121Z,76.50
2023-03-03T13:36:36.716Z,75.50
2023-03-03T13:39:19.443Z,74.80
2023-03-03T13:41:57.160Z,73.70
2023-03-03T13:44:36.440Z,74.30
2023-03-03T13:47:43.941Z,73.70
2023-03-03T13:50:32.229Z,73.80
2023-03-03T13:53:50.276Z,73.70
2023-03-03T13:56:55.618Z,73.40
2023-03-03T13:59:43.624Z,73.10
2023-03-03T14:02:48.315Z,72.90
2023-03-03T14:05:29.142Z,73.30
2023-03-03T14:08:19.990Z,73.80
2023-03-03T14:11:07.607Z,74.30
2023-03-03T14:13:48.733Z,74.70
2023-03-03T14:16:37.009Z,75.60
2023-03-03T14:19:14.215Z,76.10
2023-03-03T14:21:53.711Z,76.80
2023-03-03T14:24:25.270Z,77.00
2023-03-03T14:26:55.277Z,77.00
2023-03-03T14:29:28.281Z,77.40
2023-03-03T14:32:43.146Z,77.40
2023-03-03T14:35:21.982Z,76.90
2023-03-03T14:37:50.750Z,77.00
2023-03-03T14:40:32.992Z,75.70
2023-03-03T14:43:02.231Z,75.40
2023-03-03T14:45:40.162Z,74.40
2023-03-03T14:48:25.533Z,75.00
2023-03-03T14:50:59.087Z,74.90
2023-03-03T14:53:42.778Z,75.10
2023-03-03T14:56:22.565Z,75.50
2023-03-03T14:58:51.035Z,75.50
2023-03-03T15:01:31.357Z,75.90
2023-03-03T15:04:24.151Z,76.00
2023-03-03T15:06:53.763Z,74.80
2023-03-03T15:09:35.778Z,73.30
2023-03-03T15:12:21.896Z,71.90
2023-03-03T15:15:02.450Z,71.90
2023-03-03T15:17:38.808Z,72.00
2023-03-03T15:20:24.924Z,73.60
2023-03-03T15:23:20.695Z,73.30
2023-03-03T15:25:56.059Z,71.50
2023-03-03T15:28:39.382Z,70.10
2023-03-03T15:31:24.888Z,65.60
2023-03-03T15:34:14.128Z,62.40
2023-03-03T15:36:52.636Z,63.20
2023-03-03T15:39:43.102Z,60.40
2023-03-03T15:42:27.349Z,59.20
2023-03-03T15:45:29.361Z,59.80
2023-03-03T15:48:29.086Z,59.80
2023-03-03T15:51:14.858Z,59.10
2023-03-03T15:54:20.408Z,59.60
2023-03-03T15:56:52.760Z,58.30
2023-03-03T15:59:33.175Z,58.90
2023-03-03T16:02:18.235Z,60.70
2023-03-03T16:05:01.425Z,63.80
2023-03-03T16:08:13.812Z,66.40
2023-03-03T16:11:19.088Z,67.30
2023-03-03T16:14:43.281Z,68.60
2023-03-03T16:17:36.602Z,71.40
2023-03-03T16:20:09.725Z,73.90
2023-03-03T16:22:39.926Z,76.10
2023-03-03T16:25:21.784Z,78.20
2023-03-03T16:28:05.683Z,79.40
2023-03-03T16:30:39.986Z,80.60
2023-03-03T16:33:22.719Z,81.10
2023-03-03T16:36:06.164Z,81.70
2023-03-03T16:38:43.647Z,82.20
2023-03-03T16:41:21.057Z,82.80
2023-03-03T16:44:10.335Z,83.10
2023-03-03T16:46:45.738Z,83.30
2023-03-03T16:49:12.964Z,84.00
2023-03-03T16:52:10.063Z,84.00
2023-03-03T16:55:03.177Z,84.30
2023-03-03T16:57:39.347Z,84.50
2023-03-03T17:00:26.568Z,84.80
2023-03-03T17:03:16.647Z,85.00
2023-03-03T17:06:05.300Z,84.90
2023-03-03T17:09:01.050Z,85.10
2023-03-03T17:12:09.040Z,85.10
2023-03-03T17:14:57.347Z,85.10
2023-03-03T17:17:42.722Z,85.60
2023-03-03T17:20:13.136Z,86.00
2023-03-03T17:23:03.714Z,86.40
2023-03-03T17:25:45.727Z,86.50
2023-03-03T17:28:33.338Z,86.60
2023-03-03T17:31:12.769Z,86.80
2023-03-03T17:34:03.836Z,87.10
2023-03-03T17:36:46.308Z,87.00
2023-03-03T17:39:50.427Z,86.90
2023-03-03T17:42:36.860Z,86.80
2023-03-03T17:45:17.243Z,86.60
2023-03-03T17:47:56.646Z,86.50
2023-03-03T17:50:44.985Z,86.50
2023-03-03T17:53:15.349Z,86.60
2023-03-03T17:56:06.084Z,86.90
2023-03-03T17:59:01.786Z,87.00
2023-03-03T18:01:44.303Z,87.40
2023-03-03T18:04:30.645Z,87.50
2023-03-03T18:07:25.579Z,87.30
2023-03-03T18:10:11.727Z,87.20
2023-03-03T18:12:59.220Z,87.30
2023-03-03T18:16:01.837Z,87.10
2023-03-03T18:18:58.022Z,87.40
2023-03-03T18:21:35.801Z,87.10
2023-03-03T18:24:24.847Z,87.20
2023-03-03T18:26:56.157Z,87.00
2023-03-03T18:29:28.597Z,86.30
2023-03-03T18:31:59.011Z,86.20
2023-03-03T18:34:39.584Z,86.40
2023-03-03T18:37:31.475Z,86.70
2023-03-03T18:40:04.573Z,86.60
2023-03-03T18:42:40.800Z,86.70
2023-03-03T18:45:20.281Z,86.60
2023-03-03T18:48:09.739Z,86.50
2023-03-03T18:50:48.685Z,86.40
2023-03-03T18:53:24.842Z,86.30
2023-03-03T18:55:55.163Z,86.30
2023-03-03T18:58:34.556Z,86.40
2023-03-03T19:01:33.740Z,86.30
2023-03-03T19:04:16.818Z,86.30
2023-03-03T19:06:43.996Z,86.80
2023-03-03T19:09:17.563Z,87.20
2023-03-03T19:11:54.185Z,87.50
2023-03-03T19:14:28.967Z,87.70
2023-03-03T19:16:59.080Z,87.80
2023-03-03T19:19:33.648Z,88.10
2023-03-03T19:22:22.222Z,88.20
2023-03-03T19:25:08.225Z,88.20
2023-03-03T19:27:46.761Z,88.00
2023-03-03T19:30:22.659Z,88.10
2023-03-03T19:33:33.587Z,88.20
2023-03-03T19:36:25.267Z,88.30
2023-03-03T19:39:24.889Z,88.30
2023-03-03T19:42:13.435Z,88.40
2023-03-03T19:45:03.387Z,88.50
2023-03-03T19:47:54.519Z,88.70
2023-03-03T19:50:49.238Z,88.60
2023-03-03T19:53:35.340Z,88.60
2023-03-03T19:56:31.051Z,88.90
2023-03-03T19:59:31.751Z,89.00
2023-03-03T20:02:14.032Z,88.80
2023-03-03T20:05:05.755Z,88.70
2023-03-03T20:08:21.237Z,88.80
2023-03-03T20:11:07.848Z,88.70
2023-03-03T20:13:41.958Z,88.60
2023-03-03T20:16:40.685Z,88.70
2023-03-03T20:19:36.644Z,88.80
2023-03-03T20:22:09.478Z,88.50
2023-03-03T20:24:54.179Z,88.50
2023-03-03T20:27:43.073Z,88.80
2023-03-03T20:30:16.319Z,88.90
2023-03-03T20:33:04.723Z,88.90
2023-03-03T20:35:43.853Z,89.00
2023-03-03T20:38:54.069Z,89.20
2023-03-03T20:41:48.994Z,89.20
2023-03-03T20:44:38.342Z,89.30
2023-03-03T20:47:17.356Z,89.20
2023-03-03T20:49:58.901Z,89.30
2023-03-03T20:52:38.444Z,89.40
2023-03-03T20:55:28.779Z,89.40
2023-03-03T20:58:19.658Z,89.30
2023-03-03T21:01:04.124Z,89.40
2023-03-03T21:03:43.311Z,89.50
2023-03-03T21:06:15.519Z,89.50
2023-03-03T21:08:49.577Z,89.30
2023-03-03T21:11:40.898Z,89.30
2023-03-03T21:14:23.587Z,89.30
2023-03-03T21:16:58.972Z,89.30
2023-03-03T21:19:34.788Z,89.20
2023-03-03T21:22:03.319Z,89.10
2023-03-03T21:24:54.631Z,89.00
2023-03-03T21:27:35.094Z,89.10
2023-03-03T21:30:05.330Z,88.80
2023-03-03T21:32:44.805Z,88.90
2023-03-03T21:35:24.393Z,89.00
2023-03-03T21:37:53.882Z,89.00
2023-03-03T21:40:25.354Z,89.00
2023-03-03T21:42:58.871Z,88.80
2023-03-03T21:45:27.357Z,88.90
2023-03-03T21:48:02.099Z,89.00
2023-03-03T21:50:32.560Z,88.90
2023-03-03T21:53:00.018Z,89.20
2023-03-03T21:55:27.376Z,88.80
2023-03-03T21:57:54.644Z,88.80
2023-03-03T22:00:22.202Z,88.80
2023-03-03T22:02:49.542Z,88.70
2023-03-03T22:05:16.784Z,88.70
2023-03-03T22:07:44.103Z,88.80
2023-03-03T22:10:11.542Z,89.00
2023-03-03T22:12:38.830Z,88.90
2023-03-03T22:15:06.580Z,89.10
2023-03-03T22:17:33.778Z,89.20
2023-03-03T22:20:01.026Z,89.20
2023-03-03T22:22:28.378Z,89.20
2023-03-03T22:24:55.611Z,89.10
2023-03-03T22:27:23.455Z,89.00
2023-03-03T22:29:50.860Z,89.00
2023-03-03T22:32:18.139Z,88.90
2023-03-03T22:34:45.698Z,88.70
2023-03-03T22:37:17.352Z,88.50
2023-03-03T22:39:44.560Z,88.30
2023-03-03T22:42:11.796Z,88.40
2023-03-03T22:44:39.858Z,88.20
2023-03-03T22:47:07.097Z,87.90
2023-03-03T22:49:34.343Z,87.60
2023-03-03T22:52:02.630Z,87.40
2023-03-03T22:54:29.960Z,87.10
2023-03-03T22:56:57.181Z,86.70
2023-03-03T22:59:24.395Z,86.50
2023-03-03T23:01:51.734Z,86.40
2023-03-03T23:04:19.020Z,86.50
2023-03-03T23:06:46.281Z,86.70
2023-03-03T23:09:13.536Z,86.60
2023-03-03T23:11:40.763Z,86.70
2023-03-03T23:14:08.005Z,86.60
2023-03-03T23:16:35.489Z,86.70
2023-03-03T23:19:02.745Z,86.80
2023-03-03T23:21:29.979Z,86.80
2023-03-03T23:23:57.182Z,86.80
2023-03-03T23:26:24.398Z,86.90
2023-03-03T23:28:51.610Z,87.00
2023-03-03T23:31:18.903Z,87.00
2023-03-03T23:33:46.537Z,86.80
2023-03-03T23:36:14.080Z,87.00
2023-03-03T23:38:43.109Z,87.10
2023-03-03T23:41:10.548Z,87.00
2023-03-03T23:43:37.787Z,86.90
2023-03-03T23:46:05.097Z,87.00
2023-03-03T23:48:32.313Z,87.00
2023-03-03T23:51:02.590Z,87.10
2023-03-03T23:53:29.839Z,87.10
2023-03-03T23:55:57.197Z,87.20
2023-03-03T23:58:24.423Z,87.20
